createdAt,value
2024-01-24T00:01:52.886Z,18.40
2024-01-24T00:04:20.367Z,22.17
2024-01-24T00:06:47.694Z,18.83
2024-01-24T00:09:15.053Z,22.17
2024-01-24T00:11:42.337Z,22.10
2024-01-24T00:14:10.312Z,18.23
2024-01-24T00:16:37.653Z,19.00
2024-01-24T00:19:05.366Z,17.97
2024-01-24T00:21:32.780Z,17.17
2024-01-24T00:24:00.301Z,19.93
2024-01-24T00:26:27.797Z,19.47
2024-01-24T00:28:55.093Z,19.87
2024-01-24T00:31:22.359Z,17.40
2024-01-24T00:33:49.939Z,16.23
2024-01-24T00:36:17.317Z,18.10
2024-01-24T00:38:44.638Z,17.60
2024-01-24T00:41:11.899Z,21.80
2024-01-24T00:43:39.150Z,17.00
2024-01-24T00:46:06.414Z,19.47
2024-01-24T00:48:33.728Z,16.83
2024-01-24T00:51:01.013Z,22.67
2024-01-24T00:53:29.073Z,21.57
2024-01-24T00:55:57.492Z,20.17
2024-01-24T00:58:24.772Z,21.60
2024-01-24T01:00:52.201Z,24.43
2024-01-24T01:03:19.662Z,24.60
2024-01-24T01:05:47.083Z,23.57
2024-01-24T01:08:14.724Z,26.03
2024-01-24T01:10:41.965Z,39.80
2024-01-24T01:13:09.224Z,39.50
2024-01-24T01:15:36.549Z,30.37
2024-01-24T01:18:03.965Z,31.10
2024-01-24T01:20:33.062Z,27.47
2024-01-24T01:23:00.429Z,35.17
2024-01-24T01:25:28.002Z,36.23
2024-01-24T01:27:55.314Z,44.70
2024-01-24T01:30:24.898Z,35.23
2024-01-24T01:32:52.519Z,21.87
2024-01-24T01:35:19.824Z,19.87
2024-01-24T01:37:47.108Z,19.43
2024-01-24T01:40:14.371Z,24.23
2024-01-24T01:42:48.004Z,26.87
2024-01-24T01:45:15.331Z,29.93
2024-01-24T01:47:42.703Z,28.23
2024-01-24T01:50:13.460Z,28.47
2024-01-24T01:52:40.710Z,30.13
2024-01-24T01:55:08.184Z,31.03
2024-01-24T01:57:35.595Z,33.27
2024-01-24T02:00:04.030Z,29.77
2024-01-24T02:02:31.304Z,24.87
2024-01-24T02:04:59.161Z,39.67
2024-01-24T02:07:26.521Z,33.93
2024-01-24T02:09:54.040Z,27.67
2024-01-24T02:12:21.631Z,23.00
2024-01-24T02:14:49.561Z,16.27
2024-01-24T02:17:16.801Z,15.63
2024-01-24T02:19:44.102Z,16.50
2024-01-24T02:22:11.377Z,20.63
2024-01-24T02:24:38.688Z,19.30
2024-01-24T02:27:06.199Z,17.83
2024-01-24T02:29:33.447Z,19.00
2024-01-24T02:32:00.727Z,16.30
2024-01-24T02:34:28.236Z,16.80
2024-01-24T02:36:55.622Z,12.63
2024-01-24T02:39:22.992Z,15.37
2024-01-24T02:41:50.332Z,13.77
2024-01-24T02:44:17.588Z,13.07
2024-01-24T02:46:44.858Z,10.77
2024-01-24T02:49:12.264Z,12.00
2024-01-24T02:51:39.644Z,11.10
2024-01-24T02:54:07.464Z,3.77
2024-01-24T02:56:34.868Z,3.43
2024-01-24T02:59:02.124Z,2.37
2024-01-24T03:01:29.410Z,4.73
2024-01-24T03:03:56.952Z,3.43
2024-01-24T03:06:24.385Z,2.73
2024-01-24T03:08:52.731Z,3.87
2024-01-24T03:11:20.098Z,3.20
2024-01-24T03:13:47.333Z,1.77
2024-01-24T03:16:14.601Z,2.80
2024-01-24T03:18:42.128Z,4.03
2024-01-24T03:21:10.634Z,3.30
2024-01-24T03:23:39.390Z,4.47
2024-01-24T03:26:07.572Z,3.57
2024-01-24T03:28:35.088Z,3.93
2024-01-24T03:31:02.782Z,4.20
2024-01-24T03:33:30.285Z,4.57
2024-01-24T03:35:57.577Z,4.50
2024-01-24T03:38:24.859Z,5.17
2024-01-24T03:40:52.182Z,5.50
2024-01-24T03:43:19.526Z,4.40
2024-01-24T03:45:46.912Z,5.33
2024-01-24T03:48:14.325Z,3.40
2024-01-24T03:50:41.672Z,3.93
2024-01-24T03:53:08.915Z,4.17
2024-01-24T03:55:36.184Z,3.37
2024-01-24T03:58:03.503Z,3.77
2024-01-24T04:00:30.818Z,3.63
2024-01-24T04:02:58.447Z,2.83
2024-01-24T04:05:26.190Z,1.80
2024-01-24T04:07:53.558Z,3.07
2024-01-24T04:10:20.866Z,3.67
2024-01-24T04:12:48.775Z,2.87
2024-01-24T04:15:16.176Z,1.87
2024-01-24T04:17:43.595Z,2.13
2024-01-24T04:20:11.108Z,3.03
2024-01-24T04:22:38.399Z,2.23
2024-01-24T04:25:05.862Z,3.10
2024-01-24T04:27:33.186Z,2.90
2024-01-24T04:30:00.466Z,4.00
2024-01-24T04:32:27.805Z,9.57
2024-01-24T04:34:58.216Z,6.87
2024-01-24T04:37:25.809Z,3.73
2024-01-24T04:39:53.459Z,6.20
2024-01-24T04:42:20.945Z,2.97
2024-01-24T04:44:48.268Z,4.00
2024-01-24T04:47:15.623Z,4.77
2024-01-24T04:49:45.391Z,3.70
2024-01-24T04:52:15.363Z,2.07
2024-01-24T04:54:43.217Z,2.80
2024-01-24T04:57:10.662Z,3.23
2024-01-24T04:59:46.268Z,1.87
2024-01-24T05:02:21.287Z,3.00
2024-01-24T05:04:49.229Z,2.43
2024-01-24T05:07:17.044Z,4.80
2024-01-24T05:09:44.655Z,2.13
2024-01-24T05:12:12.253Z,3.67
2024-01-24T05:14:39.554Z,2.33
2024-01-24T05:17:07.503Z,3.27
2024-01-24T05:19:34.918Z,5.43
2024-01-24T05:22:02.218Z,5.23
2024-01-24T05:24:29.517Z,4.50
2024-01-24T05:26:56.809Z,3.40
2024-01-24T05:29:24.062Z,3.70
2024-01-24T05:31:53.695Z,4.40
2024-01-24T05:34:21.291Z,3.03
2024-01-24T05:36:48.646Z,4.17
2024-01-24T05:39:16.981Z,2.53
2024-01-24T05:41:44.933Z,3.07
2024-01-24T05:44:12.288Z,2.20
2024-01-24T05:46:39.677Z,3.47
2024-01-24T05:49:07.460Z,3.80
2024-01-24T05:51:34.959Z,3.67
2024-01-24T05:54:02.279Z,4.30
2024-01-24T05:56:29.656Z,3.00
2024-01-24T05:58:56.902Z,2.50
2024-01-24T06:01:24.332Z,2.97
2024-01-24T06:03:51.726Z,2.77
2024-01-24T06:06:20.304Z,3.33
2024-01-24T06:08:48.267Z,3.03
2024-01-24T06:11:16.011Z,2.40
2024-01-24T06:13:43.315Z,3.37
2024-01-24T06:16:10.615Z,2.73
2024-01-24T06:18:37.929Z,3.70
2024-01-24T06:21:05.372Z,3.10
2024-01-24T06:23:32.798Z,5.93
2024-01-24T06:26:00.043Z,4.83
2024-01-24T06:28:27.518Z,2.40
2024-01-24T06:30:54.902Z,3.17
2024-01-24T06:33:22.857Z,2.20
2024-01-24T06:35:50.301Z,1.57
2024-01-24T06:38:17.634Z,2.70
2024-01-24T06:40:45.010Z,3.10
2024-01-24T06:43:13.705Z,1.43
2024-01-24T06:45:41.042Z,2.20
2024-01-24T06:48:08.999Z,1.50
2024-01-24T06:50:36.710Z,1.80
2024-01-24T06:53:05.002Z,1.43
2024-01-24T06:55:32.706Z,1.00
2024-01-24T06:58:00.021Z,1.13
2024-01-24T07:00:29.201Z,0.70
2024-01-24T07:02:56.529Z,1.00
2024-01-24T07:05:23.824Z,1.10
2024-01-24T07:07:51.104Z,0.80
2024-01-24T07:10:18.445Z,1.30
2024-01-24T07:12:48.960Z,1.20
2024-01-24T07:15:19.865Z,1.47
2024-01-24T07:17:47.820Z,1.40
2024-01-24T07:20:17.134Z,1.50
2024-01-24T07:22:44.637Z,1.80
2024-01-24T07:25:11.897Z,1.00
2024-01-24T07:27:39.443Z,0.90
2024-01-24T07:30:07.203Z,0.80
2024-01-24T07:32:35.224Z,0.73
2024-01-24T07:35:02.888Z,0.70
2024-01-24T07:37:30.334Z,2.40
2024-01-24T07:39:57.685Z,6.93
2024-01-24T07:42:25.127Z,3.10
2024-01-24T07:44:52.459Z,2.00
2024-01-24T07:47:22.778Z,1.20
2024-01-24T07:49:50.345Z,0.83
2024-01-24T07:52:28.575Z,0.80
2024-01-24T07:55:04.509Z,1.30
2024-01-24T07:57:31.987Z,0.67
2024-01-24T07:59:59.527Z,0.60
2024-01-24T08:02:26.939Z,0.70
2024-01-24T08:04:54.565Z,0.70
2024-01-24T08:07:22.087Z,0.40
2024-01-24T08:09:49.685Z,0.50
2024-01-24T08:12:17.693Z,0.77
2024-01-24T08:14:45.198Z,0.70
2024-01-24T08:17:12.515Z,0.70
2024-01-24T08:19:40.256Z,0.60
2024-01-24T08:22:07.697Z,0.70
2024-01-24T08:24:35.069Z,0.80
2024-01-24T08:27:02.576Z,0.70
2024-01-24T08:29:36.590Z,0.77
2024-01-24T08:32:06.362Z,0.90
2024-01-24T08:34:34.423Z,0.57
2024-01-24T08:37:01.797Z,0.70
2024-01-24T08:39:29.126Z,0.70
2024-01-24T08:41:56.935Z,0.50
2024-01-24T08:44:24.222Z,2.03
2024-01-24T08:46:52.448Z,2.60
2024-01-24T08:49:19.836Z,0.60
2024-01-24T08:51:47.329Z,0.80
2024-01-24T08:54:14.765Z,0.67
2024-01-24T08:56:42.663Z,0.83
2024-01-24T08:59:10.046Z,1.30
2024-01-24T09:01:37.404Z,0.90
2024-01-24T09:04:05.039Z,1.93
2024-01-24T09:06:32.592Z,1.00
2024-01-24T09:08:59.966Z,1.20
2024-01-24T09:11:31.577Z,0.83
2024-01-24T09:14:05.214Z,0.60
2024-01-24T09:16:32.608Z,0.60
2024-01-24T09:19:00.214Z,0.70
2024-01-24T09:21:27.916Z,0.70
2024-01-24T09:23:55.185Z,0.90
2024-01-24T09:26:22.636Z,1.90
2024-01-24T09:28:51.301Z,3.90
2024-01-24T09:31:18.566Z,1.50
2024-01-24T09:33:45.952Z,0.90
2024-01-24T09:36:13.579Z,1.10
2024-01-24T09:38:43.776Z,1.00
2024-01-24T09:41:12.306Z,1.10
2024-01-24T09:43:40.396Z,1.00
2024-01-24T09:46:09.220Z,0.80
2024-01-24T09:48:36.561Z,0.90
2024-01-24T09:51:03.949Z,0.70
2024-01-24T09:53:31.714Z,0.90
2024-01-24T09:55:58.998Z,0.87
2024-01-24T09:58:26.303Z,0.70
2024-01-24T10:00:53.765Z,0.88
2024-01-24T10:03:21.236Z,0.77
2024-01-24T10:05:48.712Z,1.02
2024-01-24T10:08:16.440Z,0.90
2024-01-24T10:10:44.539Z,1.10
2024-01-24T10:13:11.871Z,0.80
2024-01-24T10:15:39.667Z,0.80
2024-01-24T10:18:08.388Z,1.60
2024-01-24T10:20:35.789Z,1.70
2024-01-24T10:23:03.097Z,1.30
2024-01-24T10:25:30.399Z,1.90
2024-01-24T10:27:58.004Z,1.37
2024-01-24T10:30:25.396Z,0.80
2024-01-24T10:32:52.733Z,1.50
2024-01-24T10:35:20.337Z,0.90
2024-01-24T10:37:47.930Z,0.70
2024-01-24T10:40:16.274Z,1.00
2024-01-24T10:42:44.676Z,1.08
2024-01-24T10:45:12.350Z,1.50
2024-01-24T10:47:41.869Z,1.20
2024-01-24T10:50:11.640Z,1.20
2024-01-24T10:52:40.714Z,1.30
2024-01-24T10:55:08.518Z,1.02
2024-01-24T10:57:36.163Z,1.73
2024-01-24T11:00:06.462Z,0.95
2024-01-24T11:02:34.414Z,2.90
2024-01-24T11:05:02.225Z,2.08
2024-01-24T11:07:31.091Z,2.37
2024-01-24T11:10:06.822Z,1.88
2024-01-24T11:12:35.227Z,0.95
2024-01-24T11:15:09.593Z,0.80
2024-01-24T11:17:37.231Z,1.10
2024-01-24T11:20:08.489Z,0.70
2024-01-24T11:22:36.158Z,0.90
2024-01-24T11:25:03.585Z,0.93
2024-01-24T11:27:34.890Z,0.73
2024-01-24T11:30:06.335Z,1.60
2024-01-24T11:32:46.382Z,1.30
2024-01-24T11:35:29.207Z,1.17
2024-01-24T11:38:08.284Z,1.23
2024-01-24T11:40:44.110Z,1.73
2024-01-24T11:43:27.654Z,1.50
2024-01-24T11:46:00.003Z,1.17
2024-01-24T11:48:30.745Z,1.40
2024-01-24T11:51:02.462Z,1.60
2024-01-24T11:53:29.810Z,1.60
2024-01-24T11:55:57.145Z,0.80
2024-01-24T11:58:27.965Z,0.80
2024-01-24T12:00:56.061Z,1.15
2024-01-24T12:03:23.470Z,1.30
2024-01-24T12:05:51.023Z,1.30
2024-01-24T12:24:00.080Z,2.63
2024-01-24T12:26:28.355Z,1.33
2024-01-24T12:28:56.014Z,4.57
2024-01-24T12:31:23.548Z,2.00
2024-01-24T12:33:52.708Z,1.80
2024-01-24T12:36:20.049Z,5.22
2024-01-24T12:38:47.493Z,2.40
2024-01-24T12:41:16.105Z,3.30
2024-01-24T12:43:43.555Z,2.30
2024-01-24T12:46:13.443Z,2.13
2024-01-24T12:48:41.011Z,1.30
2024-01-24T12:51:08.684Z,4.03
2024-01-24T12:53:36.420Z,2.00
2024-01-24T12:56:03.927Z,2.25
2024-01-24T12:58:31.406Z,2.85
2024-01-24T13:00:58.975Z,2.75
2024-01-24T13:03:27.736Z,3.10
2024-01-24T13:05:57.360Z,3.30
2024-01-24T13:08:24.829Z,2.00
2024-01-24T13:10:53.569Z,1.98
2024-01-24T13:13:21.317Z,3.05
2024-01-24T13:15:49.889Z,8.55
2024-01-24T13:18:18.440Z,2.40
2024-01-24T13:20:46.096Z,2.58
2024-01-24T13:23:13.373Z,2.38
2024-01-24T13:25:40.656Z,1.98
2024-01-24T13:28:11.014Z,3.08
2024-01-24T13:30:39.624Z,4.65
2024-01-24T13:33:07.800Z,25.45
2024-01-24T13:35:35.340Z,4.47
2024-01-24T13:38:05.190Z,3.72
2024-01-24T13:40:32.801Z,3.15
2024-01-24T13:43:00.238Z,5.50
2024-01-24T13:45:27.722Z,3.42
2024-01-24T13:47:55.089Z,3.65
2024-01-24T13:50:22.528Z,10.10
2024-01-24T13:52:49.831Z,1.83
2024-01-24T13:55:18.638Z,5.38
2024-01-24T13:57:46.116Z,3.53
2024-01-24T14:00:15.462Z,5.22
2024-01-24T14:02:43.945Z,2.75
2024-01-24T14:05:12.425Z,3.75
2024-01-24T14:07:43.934Z,5.97
2024-01-24T14:10:12.556Z,3.30
2024-01-24T14:12:40.345Z,3.90
2024-01-24T14:15:15.505Z,2.60
2024-01-24T14:17:51.380Z,1.50
2024-01-24T14:20:19.141Z,1.45
2024-01-24T14:22:46.492Z,1.48
2024-01-24T14:25:13.937Z,1.70
2024-01-24T14:27:42.676Z,16.27
2024-01-24T14:30:10.900Z,10.07
2024-01-24T14:32:39.734Z,3.47
2024-01-24T14:35:08.152Z,5.68
2024-01-24T14:37:35.919Z,9.43
2024-01-24T14:40:03.462Z,7.20
2024-01-24T14:42:30.997Z,7.13
2024-01-24T14:44:59.887Z,4.93
2024-01-24T14:47:27.155Z,4.00
2024-01-24T14:49:54.689Z,5.97
2024-01-24T14:52:21.980Z,8.05
2024-01-24T14:54:49.354Z,6.60
2024-01-24T14:57:16.777Z,5.18
2024-01-24T14:59:44.050Z,2.80
2024-01-24T15:02:11.306Z,2.47
2024-01-24T15:04:38.628Z,12.65
2024-01-24T15:07:06.322Z,6.10
2024-01-24T15:09:34.960Z,6.28
2024-01-24T15:12:03.530Z,4.40
2024-01-24T15:14:30.909Z,9.98
2024-01-24T15:16:59.258Z,33.08
2024-01-24T15:19:26.958Z,20.02
2024-01-24T15:21:54.776Z,27.05
2024-01-24T15:24:23.364Z,35.30
2024-01-24T15:26:50.834Z,48.55
2024-01-24T15:29:18.272Z,42.10
2024-01-24T15:31:45.555Z,15.00
2024-01-24T15:34:15.592Z,18.07
2024-01-24T15:36:44.181Z,46.17
2024-01-24T15:39:13.805Z,18.73
2024-01-24T15:41:42.576Z,13.52
2024-01-24T15:44:10.003Z,9.02
2024-01-24T15:46:37.328Z,10.27
2024-01-24T15:49:04.960Z,11.15
2024-01-24T15:51:32.948Z,10.73
2024-01-24T15:54:00.486Z,12.17
2024-01-24T15:56:28.571Z,12.60
2024-01-24T15:58:58.317Z,9.40
2024-01-24T16:01:27.953Z,28.13
2024-01-24T16:03:56.511Z,29.15
2024-01-24T16:06:26.300Z,14.73
2024-01-24T16:08:53.815Z,12.43
2024-01-24T16:11:21.094Z,20.10
2024-01-24T16:13:48.962Z,9.75
2024-01-24T16:16:17.955Z,7.63
2024-01-24T16:18:49.338Z,8.23
2024-01-24T16:21:18.652Z,8.48
2024-01-24T16:23:45.961Z,28.67
2024-01-24T16:26:13.222Z,17.57
2024-01-24T16:28:40.584Z,10.87
2024-01-24T16:31:08.144Z,15.20
2024-01-24T16:33:35.672Z,33.20
2024-01-24T16:36:03.044Z,32.90
2024-01-24T16:38:30.283Z,34.83
2024-01-24T16:40:57.526Z,20.73
2024-01-24T16:43:24.847Z,19.42
2024-01-24T16:45:52.415Z,14.90
2024-01-24T16:48:19.897Z,10.33
2024-01-24T16:50:47.281Z,8.30
2024-01-24T16:53:14.885Z,8.47
2024-01-24T16:55:42.891Z,8.33
2024-01-24T16:58:10.695Z,5.80
2024-01-24T17:00:38.064Z,6.83
2024-01-24T17:03:05.530Z,5.90
2024-01-24T17:05:32.865Z,10.83
2024-01-24T17:08:00.262Z,6.77
2024-01-24T17:10:27.517Z,7.00
2024-01-24T17:12:54.863Z,6.18
2024-01-24T17:15:22.165Z,5.75
2024-01-24T17:17:49.535Z,6.68
2024-01-24T17:20:17.672Z,5.17
2024-01-24T17:22:44.983Z,6.45
2024-01-24T17:25:14.256Z,5.43
2024-01-24T17:27:41.627Z,5.38
2024-01-24T17:30:11.326Z,5.75
2024-01-24T17:32:38.777Z,6.30
2024-01-24T17:35:06.573Z,6.80
2024-01-24T17:37:34.041Z,12.67
2024-01-24T17:40:01.328Z,9.60
2024-01-24T17:42:28.834Z,10.15
2024-01-24T17:44:56.315Z,10.70
2024-01-24T17:47:24.499Z,9.70
2024-01-24T17:49:52.034Z,9.20
2024-01-24T17:52:19.536Z,15.83
2024-01-24T17:54:46.873Z,16.02
2024-01-24T17:57:15.452Z,11.93
2024-01-24T17:59:43.200Z,9.35
2024-01-24T18:02:10.788Z,7.38
2024-01-24T18:04:38.095Z,6.30
2024-01-24T18:07:05.619Z,6.40
2024-01-24T18:09:32.984Z,6.70
2024-01-24T18:12:00.266Z,8.23
2024-01-24T18:14:27.640Z,7.53
2024-01-24T18:16:54.918Z,8.38
2024-01-24T18:19:22.910Z,11.15
2024-01-24T18:21:50.380Z,9.50
2024-01-24T18:24:17.638Z,5.28
2024-01-24T18:26:44.952Z,8.13
2024-01-24T18:29:12.507Z,26.67
2024-01-24T18:31:39.759Z,8.95
2024-01-24T18:34:07.239Z,11.95
2024-01-24T18:36:34.577Z,12.43
2024-01-24T18:39:01.872Z,8.13
2024-01-24T18:41:29.162Z,5.50
2024-01-24T18:43:56.442Z,4.75
2024-01-24T18:46:26.503Z,7.88
2024-01-24T18:48:54.427Z,12.65
2024-01-24T18:51:22.007Z,9.50
2024-01-24T18:53:49.484Z,10.00
2024-01-24T18:56:18.174Z,8.65
2024-01-24T18:58:45.993Z,10.30
2024-01-24T19:01:14.042Z,8.95
2024-01-24T19:03:41.991Z,7.18
2024-01-24T19:06:09.548Z,6.87
2024-01-24T19:08:39.914Z,8.90
2024-01-24T19:11:07.266Z,14.18
2024-01-24T19:13:35.825Z,16.35
2024-01-24T19:16:04.086Z,13.45
2024-01-24T19:18:34.043Z,10.00
2024-01-24T19:21:01.492Z,11.18
2024-01-24T19:23:28.882Z,10.53
2024-01-24T19:25:58.879Z,11.37
2024-01-24T19:28:26.142Z,8.93
2024-01-24T19:30:53.453Z,4.50
2024-01-24T19:33:20.853Z,7.33
2024-01-24T19:35:48.579Z,3.93
2024-01-24T19:38:16.391Z,4.93
2024-01-24T19:40:43.765Z,5.83
2024-01-24T19:43:11.085Z,4.57
2024-01-24T19:45:39.842Z,8.77
2024-01-24T19:48:07.567Z,8.80
2024-01-24T19:50:34.852Z,10.52
2024-01-24T19:53:02.710Z,7.72
2024-01-24T19:55:30.827Z,5.82
2024-01-24T19:57:59.338Z,6.75
2024-01-24T20:00:27.570Z,8.37
2024-01-24T20:02:54.891Z,7.28
2024-01-24T20:05:22.594Z,13.68
2024-01-24T20:07:50.565Z,7.38
2024-01-24T20:10:18.001Z,4.57
2024-01-24T20:12:45.263Z,4.83
2024-01-24T20:15:13.725Z,3.97
2024-01-24T20:17:46.319Z,5.30
2024-01-24T20:20:15.552Z,4.00
2024-01-24T20:22:42.923Z,5.80
2024-01-24T20:25:10.798Z,6.53
2024-01-24T20:27:38.108Z,6.30
2024-01-24T20:30:05.641Z,5.90
2024-01-24T20:32:34.659Z,19.75
2024-01-24T20:35:05.579Z,6.77
2024-01-24T20:37:32.977Z,5.95
2024-01-24T20:40:01.929Z,7.93
2024-01-24T20:42:30.214Z,7.20
2024-01-24T20:44:59.485Z,4.43
2024-01-24T20:47:27.365Z,3.50
2024-01-24T20:49:56.133Z,8.88
2024-01-24T20:52:23.757Z,11.13
2024-01-24T20:54:51.583Z,6.38
2024-01-24T20:57:20.517Z,4.00
2024-01-24T20:59:47.911Z,4.63
2024-01-24T21:02:15.468Z,5.80
2024-01-24T21:04:43.067Z,7.37
2024-01-24T21:07:10.684Z,6.80
2024-01-24T21:09:38.300Z,19.38
2024-01-24T21:12:08.202Z,14.40
2024-01-24T21:14:35.580Z,4.13
2024-01-24T21:17:02.869Z,7.95
2024-01-24T21:19:30.329Z,7.93
2024-01-24T21:21:57.869Z,7.17
2024-01-24T21:24:25.194Z,7.83
2024-01-24T21:26:52.518Z,10.40
2024-01-24T21:29:19.784Z,13.57
2024-01-24T21:31:47.341Z,6.50
2024-01-24T21:34:15.111Z,5.38
2024-01-24T21:36:47.725Z,5.43
2024-01-24T21:39:16.552Z,4.13
2024-01-24T21:41:43.815Z,5.10
2024-01-24T21:44:11.586Z,29.93
2024-01-24T21:46:38.867Z,5.57
2024-01-24T21:49:06.402Z,14.27
2024-01-24T21:51:33.669Z,7.30
2024-01-24T21:54:00.919Z,7.20
2024-01-24T21:56:28.201Z,8.23
2024-01-24T21:58:56.413Z,9.40
2024-01-24T22:01:24.388Z,8.03
2024-01-24T22:03:52.260Z,10.37
2024-01-24T22:06:19.829Z,15.83
2024-01-24T22:08:47.158Z,24.07
2024-01-24T22:11:15.537Z,8.83
2024-01-24T22:13:42.809Z,4.43
2024-01-24T22:16:10.270Z,4.73
2024-01-24T22:18:44.278Z,3.67
2024-01-24T22:21:17.404Z,3.00
2024-01-24T22:23:45.102Z,10.67
2024-01-24T22:26:12.387Z,5.77
2024-01-24T22:28:39.665Z,6.23
2024-01-24T22:31:06.968Z,7.77
2024-01-24T22:33:35.654Z,6.10
2024-01-24T22:36:03.869Z,4.80
2024-01-24T22:38:31.234Z,4.77
2024-01-24T22:40:58.491Z,6.05
2024-01-24T22:43:25.806Z,5.57
2024-01-24T22:45:53.180Z,4.37
2024-01-24T22:48:20.496Z,4.13
2024-01-24T22:50:47.820Z,2.30
2024-01-24T22:53:15.107Z,5.17
2024-01-24T22:55:42.561Z,3.60
2024-01-24T22:58:09.846Z,4.47
2024-01-24T23:00:37.270Z,3.30
2024-01-24T23:03:04.797Z,3.70
2024-01-24T23:05:32.187Z,4.75
2024-01-24T23:08:00.118Z,2.53
2024-01-24T23:10:27.917Z,3.33
2024-01-24T23:12:55.279Z,3.80
2024-01-24T23:15:22.713Z,3.15
2024-01-24T23:17:50.084Z,4.05
2024-01-24T23:20:17.724Z,3.65
2024-01-24T23:22:45.632Z,3.78
2024-01-24T23:25:12.913Z,2.50
2024-01-24T23:27:40.885Z,5.35
2024-01-24T23:30:08.601Z,4.00
2024-01-24T23:32:35.850Z,3.28
2024-01-24T23:35:04.061Z,2.90
2024-01-24T23:37:31.577Z,3.72
2024-01-24T23:39:59.077Z,4.20
2024-01-24T23:42:26.568Z,3.83
2024-01-24T23:44:53.913Z,4.53
2024-01-24T23:47:21.187Z,4.38
2024-01-24T23:49:48.619Z,3.47
2024-01-24T23:52:16.640Z,2.97
2024-01-24T23:54:43.957Z,2.85
2024-01-24T23:57:11.989Z,2.90
2024-01-24T23:59:39.309Z,4.13
